createdAt,value
2018-07-12T00:02:01.347Z,0.30
2018-07-12T00:04:29.863Z,0.50
2018-07-12T00:06:57.367Z,0.30
2018-07-12T00:09:25.637Z,0.30
2018-07-12T00:11:52.963Z,0.40
2018-07-12T00:14:20.960Z,0.35
2018-07-12T00:16:49.532Z,0.40
2018-07-12T00:19:17.424Z,0.30
2018-07-12T00:21:45.087Z,0.42
2018-07-12T00:24:12.447Z,0.53
2018-07-12T00:26:40.052Z,0.30
2018-07-12T00:29:08.104Z,0.30
2018-07-12T00:31:35.563Z,0.28
2018-07-12T00:34:03.276Z,0.30
2018-07-12T00:36:30.669Z,0.30
2018-07-12T00:38:58.254Z,0.30
2018-07-12T00:41:26.028Z,0.30
2018-07-12T00:43:54.613Z,0.45
2018-07-12T00:46:23.681Z,0.40
2018-07-12T00:48:52.071Z,0.55
2018-07-12T00:51:20.001Z,0.30
2018-07-12T00:53:48.406Z,0.30
2018-07-12T00:56:15.926Z,0.40
2018-07-12T00:58:43.659Z,0.40
2018-07-12T01:01:11.104Z,0.40
2018-07-12T01:03:38.463Z,0.40
2018-07-12T01:06:05.927Z,0.35
2018-07-12T01:08:33.310Z,0.37
2018-07-12T01:11:00.638Z,0.30
2018-07-12T01:15:06.616Z,0.30
2018-07-12T01:17:34.304Z,0.30
2018-07-12T01:20:03.171Z,0.40
2018-07-12T01:22:30.901Z,0.40
2018-07-12T01:24:58.601Z,0.40
2018-07-12T01:27:26.062Z,0.40
2018-07-12T01:29:54.200Z,0.37
2018-07-12T01:32:21.590Z,0.40
2018-07-12T01:34:49.336Z,0.50
2018-07-12T01:37:17.038Z,0.50
2018-07-12T01:39:44.638Z,0.30
2018-07-12T01:42:12.128Z,0.40
2018-07-12T01:44:39.587Z,0.30
2018-07-12T01:47:07.044Z,0.40
2018-07-12T01:49:48.437Z,0.45
2018-07-12T01:52:15.995Z,0.30
2018-07-12T01:54:43.675Z,0.30
2018-07-12T01:57:11.195Z,0.50
2018-07-12T01:59:40.048Z,0.30
2018-07-12T02:02:07.511Z,0.30
2018-07-12T02:04:34.901Z,0.40
2018-07-12T02:07:02.310Z,0.45
2018-07-12T02:09:30.092Z,0.62
2018-07-12T02:11:58.481Z,0.45
2018-07-12T02:14:27.151Z,0.30
2018-07-12T02:16:54.600Z,0.60
2018-07-12T02:19:21.900Z,0.30
2018-07-12T02:21:49.530Z,0.40
2018-07-12T02:24:16.931Z,0.30
2018-07-12T02:26:44.706Z,0.40
2018-07-12T02:29:12.189Z,0.40
2018-07-12T02:31:39.659Z,0.55
2018-07-12T02:34:07.919Z,0.60
2018-07-12T02:36:35.276Z,0.57
2018-07-12T02:39:02.708Z,0.40
2018-07-12T02:41:30.168Z,0.30
2018-07-12T02:43:57.646Z,0.88
2018-07-12T02:46:25.065Z,0.42
2018-07-12T02:48:52.552Z,0.40
2018-07-12T02:51:19.951Z,0.30
2018-07-12T02:53:48.674Z,0.30
2018-07-12T02:56:16.235Z,0.30
2018-07-12T02:58:43.772Z,0.40
2018-07-12T03:01:11.288Z,0.80
2018-07-12T03:03:38.687Z,0.47
2018-07-12T03:06:06.860Z,0.40
2018-07-12T03:08:34.425Z,0.68
2018-07-12T03:11:02.061Z,0.45
2018-07-12T03:13:30.659Z,0.45
2018-07-12T03:15:58.169Z,0.30
2018-07-12T03:18:25.585Z,0.40
2018-07-12T03:20:53.553Z,0.30
2018-07-12T03:23:21.651Z,0.30
2018-07-12T03:25:49.126Z,0.30
2018-07-12T03:28:17.223Z,0.40
2018-07-12T03:30:45.268Z,0.30
2018-07-12T03:33:12.710Z,0.30
2018-07-12T03:35:40.181Z,0.62
2018-07-12T03:38:07.639Z,0.37
2018-07-12T03:40:35.132Z,0.40
2018-07-12T03:43:02.523Z,0.40
2018-07-12T03:45:31.116Z,0.30
2018-07-12T03:47:58.609Z,0.50
2018-07-12T03:50:26.244Z,0.47
2018-07-12T03:52:53.684Z,0.40
2018-07-12T03:55:21.096Z,0.40
2018-07-12T03:57:49.460Z,0.30
2018-07-12T04:00:16.987Z,0.45
2018-07-12T04:02:44.548Z,0.30
2018-07-12T04:05:12.404Z,0.40
2018-07-12T04:07:39.866Z,0.30
2018-07-12T04:10:07.425Z,0.40
2018-07-12T04:12:34.957Z,0.33
2018-07-12T04:15:03.353Z,0.57
2018-07-12T04:17:32.731Z,0.30
2018-07-12T04:20:01.381Z,0.40
2018-07-12T04:22:30.330Z,0.30
2018-07-12T04:24:58.857Z,0.50
2018-07-12T04:27:28.138Z,0.37
2018-07-12T04:29:57.624Z,0.50
2018-07-12T04:32:26.725Z,0.40
2018-07-12T04:34:54.232Z,0.30
2018-07-12T04:37:24.038Z,0.30
2018-07-12T04:39:51.628Z,0.50
2018-07-12T04:42:19.698Z,0.45
2018-07-12T04:44:47.290Z,0.30
2018-07-12T04:47:14.792Z,0.40
2018-07-12T04:49:42.259Z,0.40
2018-07-12T04:52:09.840Z,0.55
2018-07-12T04:54:37.912Z,0.30
2018-07-12T04:57:05.219Z,0.40
2018-07-12T04:59:33.755Z,0.35
2018-07-12T05:02:01.729Z,0.30
2018-07-12T05:04:29.071Z,0.50
2018-07-12T05:06:57.138Z,0.35
2018-07-12T05:09:24.463Z,0.57
2018-07-12T05:11:51.775Z,0.40
2018-07-12T05:14:20.231Z,0.40
2018-07-12T05:16:47.552Z,0.57
2018-07-12T05:19:14.860Z,0.78
2018-07-12T05:21:42.185Z,0.50
2018-07-12T05:24:10.510Z,0.60
2018-07-12T05:26:37.894Z,0.50
2018-07-12T05:29:09.643Z,0.65
2018-07-12T05:31:38.602Z,0.70
2018-07-12T05:34:06.303Z,0.30
2018-07-12T05:37:06.623Z,0.60
2018-07-12T05:39:43.736Z,0.40
2018-07-12T05:42:12.331Z,0.60
2018-07-12T05:44:41.689Z,0.55
2018-07-12T05:47:09.875Z,0.50
2018-07-12T05:49:38.382Z,0.45
2018-07-12T05:52:15.396Z,0.68
2018-07-12T05:57:39.718Z,0.82
2018-07-12T06:00:09.646Z,0.70
2018-07-12T06:02:40.052Z,0.57
2018-07-12T06:05:09.748Z,0.30
2018-07-12T06:07:38.889Z,1.30
2018-07-12T06:10:09.138Z,0.82
2018-07-12T06:12:45.095Z,0.42
2018-07-12T06:15:14.145Z,1.17
2018-07-12T06:17:42.368Z,0.98
2018-07-12T06:20:35.152Z,0.88
2018-07-12T06:23:04.428Z,0.90
2018-07-12T06:25:32.987Z,0.42
2018-07-12T06:28:01.559Z,0.40
2018-07-12T06:30:31.160Z,0.20
2018-07-12T06:32:59.707Z,0.20
2018-07-12T06:35:27.943Z,0.50
2018-07-12T06:37:56.463Z,0.30
2018-07-12T06:40:26.065Z,0.20
2018-07-12T06:42:54.641Z,0.62
2018-07-12T06:45:23.202Z,0.93
2018-07-12T06:47:51.863Z,0.80
2018-07-12T06:50:20.398Z,0.50
2018-07-12T06:52:49.150Z,0.50
2018-07-12T06:55:17.759Z,0.28
2018-07-12T06:57:46.305Z,1.12
2018-07-12T07:00:14.848Z,0.70
2018-07-12T07:02:43.927Z,0.55
2018-07-12T07:05:12.098Z,0.40
2018-07-12T07:07:40.335Z,0.20
2018-07-12T07:10:09.032Z,0.82
2018-07-12T07:12:37.688Z,0.40
2018-07-12T07:15:06.281Z,0.20
2018-07-12T07:17:34.832Z,0.95
2018-07-12T07:20:03.479Z,0.45
2018-07-12T07:22:32.141Z,0.55
2018-07-12T07:25:00.808Z,0.70
2018-07-12T07:27:29.423Z,1.00
2018-07-12T07:29:58.145Z,0.95
2018-07-12T07:32:28.491Z,0.70
2018-07-12T07:34:57.158Z,0.78
2018-07-12T07:37:26.231Z,0.40
2018-07-12T07:39:54.587Z,0.28
2018-07-12T07:42:23.209Z,1.00
2018-07-12T07:44:51.583Z,0.60
2018-07-12T07:47:20.550Z,0.68
2018-07-12T07:49:49.240Z,0.72
2018-07-12T07:52:17.876Z,0.82
2018-07-12T07:54:46.969Z,1.00
2018-07-12T07:57:15.524Z,1.00
2018-07-12T07:59:43.727Z,0.70
2018-07-12T08:02:12.289Z,0.90
2018-07-12T08:04:40.755Z,0.55
2018-07-12T08:07:09.351Z,0.98
2018-07-12T08:09:37.873Z,0.57
2018-07-12T08:12:06.547Z,1.25
2018-07-12T08:14:35.067Z,0.70
2018-07-12T08:17:04.503Z,0.65
2018-07-12T08:19:33.004Z,0.37
2018-07-12T08:22:07.233Z,0.60
2018-07-12T08:24:36.375Z,0.70
2018-07-12T08:27:05.592Z,1.45
2018-07-12T08:29:34.606Z,0.93
2018-07-12T08:32:04.303Z,0.90
2018-07-12T08:34:33.184Z,0.65
2018-07-12T08:37:01.731Z,0.95
2018-07-12T08:39:30.174Z,0.90
2018-07-12T08:41:58.671Z,0.90
2018-07-12T08:44:27.912Z,1.07
2018-07-12T08:46:56.022Z,0.70
2018-07-12T08:49:24.484Z,0.40
2018-07-12T08:51:53.016Z,0.93
2018-07-12T08:54:21.560Z,0.82
2018-07-12T08:56:50.119Z,0.70
2018-07-12T08:59:18.648Z,0.53
2018-07-12T09:01:47.214Z,0.85
2018-07-12T09:04:15.701Z,0.98
2018-07-12T09:06:44.306Z,0.65
2018-07-12T09:09:12.822Z,1.20
2018-07-12T09:11:40.974Z,0.75
2018-07-12T09:14:09.526Z,0.72
2018-07-12T09:16:38.504Z,0.62
2018-07-12T09:19:07.184Z,0.65
2018-07-12T09:21:35.672Z,0.42
2018-07-12T09:24:04.384Z,1.05
2018-07-12T09:26:33.077Z,0.85
2018-07-12T09:29:01.716Z,1.87
2018-07-12T09:31:30.263Z,2.42
2018-07-12T09:33:58.867Z,1.67
2018-07-12T09:36:27.368Z,1.10
2018-07-12T09:38:55.934Z,1.12
2018-07-12T09:41:25.003Z,1.20
2018-07-12T09:43:53.283Z,2.00
2018-07-12T09:46:22.011Z,2.27
2018-07-12T09:48:51.884Z,1.98
2018-07-12T09:51:20.168Z,1.52
2018-07-12T09:53:49.808Z,0.88
2018-07-12T09:56:18.733Z,2.12
2018-07-12T09:58:46.810Z,1.45
2018-07-12T10:01:20.889Z,1.15
2018-07-12T10:03:51.686Z,2.08
2018-07-12T10:06:26.922Z,1.60
2018-07-12T10:09:59.435Z,1.40
2018-07-12T10:12:28.057Z,1.27
2018-07-12T10:15:02.250Z,1.75
2018-07-12T10:17:35.966Z,1.35
2018-07-12T10:20:05.833Z,1.07
2018-07-12T10:22:34.333Z,1.47
2018-07-12T10:25:02.921Z,2.50
2018-07-12T10:27:31.476Z,2.87
2018-07-12T10:29:59.707Z,1.80
2018-07-12T10:32:28.332Z,1.72
2018-07-12T10:34:56.863Z,1.92
2018-07-12T10:37:25.479Z,0.72
2018-07-12T10:39:54.061Z,1.02
2018-07-12T10:42:23.255Z,0.95
2018-07-12T10:44:51.839Z,1.37
2018-07-12T10:47:20.427Z,2.30
2018-07-12T10:49:49.175Z,1.55
2018-07-12T10:52:17.702Z,1.10
2018-07-12T10:54:46.297Z,1.92
2018-07-12T10:57:14.992Z,1.32
2018-07-12T10:59:43.559Z,1.25
2018-07-12T11:02:12.041Z,1.45
2018-07-12T11:04:40.651Z,2.08
2018-07-12T11:07:12.213Z,1.55
2018-07-12T11:09:41.854Z,1.27
2018-07-12T11:12:10.470Z,0.93
2018-07-12T11:14:39.039Z,1.77
2018-07-12T11:17:07.557Z,1.47
2018-07-12T11:19:36.150Z,2.17
2018-07-12T11:22:04.645Z,1.75
2018-07-12T11:24:33.267Z,1.45
2018-07-12T11:27:02.536Z,0.62
2018-07-12T11:29:42.554Z,1.50
2018-07-12T11:32:11.756Z,0.88
2018-07-12T11:34:40.293Z,1.90
2018-07-12T11:37:09.652Z,1.37
2018-07-12T11:39:38.114Z,1.30
2018-07-12T11:42:06.646Z,0.72
2018-07-12T11:44:35.403Z,0.78
2018-07-12T11:47:03.971Z,0.95
2018-07-12T11:49:32.543Z,1.40
2018-07-12T11:52:01.215Z,0.70
2018-07-12T11:54:29.819Z,1.10
2018-07-12T11:56:58.950Z,1.57
2018-07-12T11:59:27.503Z,1.20
2018-07-12T12:01:56.140Z,1.27
2018-07-12T12:04:24.661Z,1.02
2018-07-12T12:06:53.257Z,0.95
2018-07-12T12:09:21.820Z,0.75
2018-07-12T12:11:50.484Z,0.62
2018-07-12T12:14:19.119Z,1.55
2018-07-12T12:16:48.564Z,1.57
2018-07-12T12:19:18.070Z,1.82
2018-07-12T12:21:46.717Z,1.22
2018-07-12T12:24:15.279Z,2.05
2018-07-12T12:26:43.868Z,1.80
2018-07-12T12:29:12.453Z,2.10
2018-07-12T12:31:41.020Z,1.20
2018-07-12T12:34:09.600Z,0.57
2018-07-12T12:36:38.214Z,0.65
2018-07-12T12:39:07.280Z,0.40
2018-07-12T12:41:35.923Z,0.72
2018-07-12T12:44:04.556Z,1.10
2018-07-12T12:46:33.068Z,0.42
2018-07-12T12:49:01.535Z,0.60
2018-07-12T12:51:30.092Z,0.47
2018-07-12T12:53:58.684Z,0.50
2018-07-12T12:56:27.363Z,0.30
2018-07-12T12:58:55.999Z,0.30
2018-07-12T13:01:24.602Z,0.30
2018-07-12T13:03:53.288Z,0.45
2018-07-12T13:06:21.943Z,0.50
2018-07-12T13:08:52.019Z,0.90
2018-07-12T13:11:20.520Z,0.80
2018-07-12T13:13:49.017Z,0.50
2018-07-12T13:16:17.557Z,0.40
2018-07-12T13:18:46.098Z,0.45
2018-07-12T13:21:14.266Z,1.67
2018-07-12T13:23:42.774Z,1.27
2018-07-12T13:26:11.347Z,1.55
2018-07-12T13:28:39.863Z,0.78
2018-07-12T13:31:08.347Z,0.80
2018-07-12T13:33:36.839Z,1.00
2018-07-12T13:36:05.501Z,1.37
2018-07-12T13:38:34.031Z,0.62
2018-07-12T13:41:02.265Z,1.07
2018-07-12T13:43:30.791Z,0.37
2018-07-12T13:45:59.268Z,0.40
2018-07-12T13:48:27.825Z,0.30
2018-07-12T13:50:56.441Z,0.30
2018-07-12T13:53:24.919Z,0.30
2018-07-12T13:55:53.138Z,0.20
2018-07-12T13:58:21.647Z,0.33
2018-07-12T14:00:50.165Z,0.42
2018-07-12T14:03:18.330Z,0.65
2018-07-12T14:05:46.559Z,0.50
2018-07-12T14:08:15.796Z,0.20
2018-07-12T14:10:44.098Z,0.40
2018-07-12T14:13:12.641Z,0.68
2018-07-12T14:15:41.196Z,0.47
2018-07-12T14:18:10.391Z,0.35
2018-07-12T14:20:38.919Z,0.47
2018-07-12T14:23:07.485Z,0.75
2018-07-12T14:25:37.424Z,0.55
2018-07-12T14:28:05.908Z,0.23
2018-07-12T14:30:34.995Z,0.20
2018-07-12T14:33:03.143Z,0.30
2018-07-12T14:35:33.048Z,0.20
2018-07-12T14:38:02.474Z,0.60
2018-07-12T14:40:31.295Z,0.55
2018-07-12T14:42:59.785Z,0.40
2018-07-12T14:45:28.253Z,0.30
2018-07-12T14:47:56.997Z,0.33
2018-07-12T14:50:25.586Z,0.50
2018-07-12T14:52:54.158Z,0.65
2018-07-12T14:55:22.703Z,0.95
2018-07-12T14:57:57.096Z,0.47
2018-07-12T15:00:25.659Z,1.02
2018-07-12T15:02:54.248Z,0.57
2018-07-12T15:05:23.297Z,0.53
2018-07-12T15:07:51.877Z,1.47
2018-07-12T15:10:20.451Z,0.78
2018-07-12T15:12:48.984Z,1.10
2018-07-12T15:15:17.686Z,0.40
2018-07-12T15:17:46.219Z,0.25
2018-07-12T15:20:16.267Z,0.20
2018-07-12T15:22:45.012Z,0.60
2018-07-12T15:25:13.587Z,0.40
2018-07-12T15:27:43.975Z,0.20
2018-07-12T15:30:12.544Z,0.15
2018-07-12T15:32:42.988Z,0.20
2018-07-12T15:35:11.660Z,0.72
2018-07-12T15:37:43.492Z,0.90
2018-07-12T15:40:16.875Z,0.82
2018-07-12T15:51:28.741Z,0.30
2018-07-12T15:53:57.871Z,0.20
2018-07-12T15:56:26.443Z,0.45
2018-07-12T15:58:54.691Z,0.82
2018-07-12T16:01:23.302Z,0.30
2018-07-12T16:03:51.819Z,0.62
2018-07-12T16:06:20.389Z,0.40
2018-07-12T16:08:48.968Z,0.57
2018-07-12T16:11:17.589Z,0.72
2018-07-12T16:13:47.216Z,0.30
2018-07-12T16:16:15.805Z,0.30
2018-07-12T16:18:44.353Z,0.40
2018-07-12T16:21:13.027Z,0.55
2018-07-12T16:23:41.564Z,0.68
2018-07-12T16:26:09.850Z,0.37
2018-07-12T16:28:39.264Z,0.82
2018-07-12T16:31:08.321Z,0.33
2018-07-12T16:33:36.847Z,0.62
2018-07-12T16:36:05.808Z,0.42
2018-07-12T16:38:36.605Z,0.25
2018-07-12T16:41:05.399Z,0.28
2018-07-12T16:43:33.936Z,0.33
2018-07-12T16:46:02.765Z,0.45
2018-07-12T16:48:31.558Z,0.33
2018-07-12T16:51:00.244Z,0.47
2018-07-12T16:53:28.916Z,0.40
2018-07-12T16:59:45.604Z,0.13
2018-07-12T17:02:25.618Z,0.42
2018-07-12T17:10:11.903Z,0.10
2018-07-12T17:12:44.830Z,0.40
2018-07-12T17:15:14.833Z,0.13
2018-07-12T17:20:25.543Z,0.33
2018-07-12T17:22:55.993Z,0.20
2018-07-12T17:25:28.424Z,0.28
2018-07-12T17:28:03.805Z,0.20
2018-07-12T17:30:32.724Z,0.30
2018-07-12T17:33:01.293Z,0.30
2018-07-12T17:35:29.918Z,0.30
2018-07-12T17:37:58.795Z,0.20
2018-07-12T17:40:27.362Z,0.30
2018-07-12T17:42:57.115Z,0.30
2018-07-12T17:45:27.213Z,0.20
2018-07-12T17:47:56.719Z,0.20
2018-07-12T17:50:26.253Z,0.28
2018-07-12T17:52:55.657Z,0.13
2018-07-12T17:55:29.768Z,0.20
2018-07-12T17:57:58.459Z,0.10
2018-07-12T18:00:26.955Z,0.30
2018-07-12T18:02:55.456Z,0.20
2018-07-12T18:05:24.617Z,0.20
2018-07-12T18:07:53.202Z,0.30
2018-07-12T18:10:23.316Z,0.60
2018-07-12T18:13:04.760Z,0.70
2018-07-12T18:18:13.363Z,0.93
2018-07-12T18:21:02.311Z,0.53
2018-07-12T18:23:31.539Z,0.45
2018-07-12T18:26:02.024Z,0.37
2018-07-12T18:28:40.277Z,0.30
2018-07-12T18:31:10.900Z,0.20
2018-07-12T18:33:40.444Z,0.30
2018-07-12T18:36:09.180Z,0.28
2018-07-12T18:38:37.878Z,0.20
2018-07-12T18:41:07.651Z,0.20
2018-07-12T18:43:36.039Z,0.20
2018-07-12T18:46:04.312Z,0.10
2018-07-12T18:48:32.679Z,0.20
2018-07-12T18:51:01.416Z,0.20
2018-07-12T18:53:30.132Z,0.10
2018-07-12T18:55:58.851Z,0.50
2018-07-12T18:58:27.363Z,0.20
2018-07-12T19:00:56.118Z,0.35
2018-07-12T19:03:25.150Z,0.20
2018-07-12T19:05:54.813Z,0.37
2018-07-12T19:08:43.285Z,0.53
2018-07-12T19:11:16.128Z,0.35
2018-07-12T19:13:45.323Z,0.35
2018-07-12T19:16:13.913Z,0.25
2018-07-12T19:18:42.696Z,0.15
2018-07-12T19:21:11.239Z,0.37
2018-07-12T19:23:39.805Z,0.28
2018-07-12T19:26:11.855Z,0.70
2018-07-12T19:32:59.959Z,0.60
2018-07-12T19:35:28.596Z,0.23
2018-07-12T19:37:57.151Z,0.33
2018-07-12T19:40:27.016Z,0.30
2018-07-12T19:42:55.588Z,0.20
2018-07-12T19:45:23.774Z,0.25
2018-07-12T19:47:52.744Z,0.25
2018-07-12T19:50:30.252Z,0.40
2018-07-12T19:52:58.988Z,0.13
2018-07-12T19:55:27.847Z,0.20
2018-07-12T19:57:56.408Z,0.20
2018-07-12T20:00:25.942Z,0.20
2018-07-12T20:02:55.442Z,0.10
2018-07-12T20:05:24.032Z,0.30
2018-07-12T20:07:58.111Z,0.20
2018-07-12T20:10:27.516Z,0.10
2018-07-12T20:12:56.268Z,0.35
2018-07-12T20:15:37.545Z,0.20
2018-07-12T20:18:06.734Z,0.10
2018-07-12T20:20:40.821Z,0.30
2018-07-12T20:23:25.789Z,0.40
2018-07-12T20:26:06.488Z,0.20
2018-07-12T20:28:35.337Z,0.13
2018-07-12T20:31:06.635Z,0.30
2018-07-12T20:33:41.677Z,0.65
2018-07-12T20:36:12.492Z,0.65
2018-07-12T20:38:46.554Z,0.20
2018-07-12T20:41:25.083Z,0.20
2018-07-12T20:43:55.082Z,0.20
2018-07-12T20:46:56.973Z,0.17
2018-07-12T20:49:25.769Z,0.28
2018-07-12T20:51:54.326Z,0.42
2018-07-12T20:54:52.842Z,0.40
2018-07-12T21:03:17.489Z,0.23
2018-07-12T21:05:46.006Z,0.50
2018-07-12T21:08:19.680Z,0.30
2018-07-12T21:10:52.875Z,0.10
2018-07-12T21:13:28.439Z,0.10
2018-07-12T21:15:57.317Z,0.23
2018-07-12T21:18:30.957Z,0.20
2018-07-12T21:20:59.635Z,0.13
2018-07-12T21:23:28.364Z,0.10
2018-07-12T21:26:09.648Z,0.10
2018-07-12T21:28:38.272Z,0.10
2018-07-12T21:31:06.869Z,0.15
2018-07-12T21:33:35.696Z,0.20
2018-07-12T21:36:20.113Z,0.30
2018-07-12T21:39:00.927Z,0.30
2018-07-12T21:41:29.340Z,0.20
2018-07-12T21:43:57.949Z,0.20
2018-07-12T21:46:26.614Z,0.10
2018-07-12T21:54:41.674Z,0.20
2018-07-12T21:57:10.219Z,0.20
2018-07-12T21:59:38.808Z,0.20
2018-07-12T22:02:08.760Z,0.20
2018-07-12T22:04:36.995Z,0.23
2018-07-12T22:07:33.085Z,0.20
2018-07-12T22:10:01.643Z,0.20
2018-07-12T22:18:10.155Z,0.20
2018-07-12T22:20:38.820Z,0.15
2018-07-12T22:44:40.372Z,0.10
2018-07-12T22:47:54.737Z,0.37
2018-07-12T22:51:05.501Z,0.20
2018-07-12T22:53:59.082Z,0.20
2018-07-12T22:56:47.292Z,0.20
2018-07-12T23:30:03.751Z,0.20
2018-07-12T23:32:32.428Z,0.33
2018-07-12T23:35:05.461Z,0.45
2018-07-12T23:37:34.004Z,0.20
2018-07-12T23:40:03.901Z,0.23
2018-07-12T23:42:33.467Z,0.62
2018-07-12T23:45:02.052Z,0.30
2018-07-12T23:47:30.864Z,0.30
2018-07-12T23:49:59.379Z,0.40
2018-07-12T23:52:28.019Z,0.30
2018-07-12T23:54:56.527Z,0.40
2018-07-12T23:57:25.395Z,0.20
2018-07-12T23:59:53.907Z,0.20
